sensor_id;sensor_type;location;lat;lon;timestamp;P1;durP1;ratioP1;P2;durP2;ratioP2
18796;SDS011;9526;52.612;13.300;2024-03-23T00:55:10;15.82;;;2.70;;
18796;SDS011;9526;52.612;13.300;2024-03-23T00:57:32;15.65;;;2.35;;
18796;SDS011;9526;52.612;13.300;2024-03-23T00:59:55;12.15;;;2.35;;
18796;SDS011;9526;52.612;13.300;2024-03-23T01:02:16;14.90;;;3.13;;
18796;SDS011;9526;52.612;13.300;2024-03-23T01:04:39;13.75;;;2.47;;
18796;SDS011;9526;52.612;13.300;2024-03-23T01:07:00;13.95;;;2.40;;
18796;SDS011;9526;52.612;13.300;2024-03-23T01:09:25;11.73;;;2.40;;
18796;SDS011;9526;52.612;13.300;2024-03-23T01:11:46;11.55;;;2.47;;
18796;SDS011;9526;52.612;13.300;2024-03-23T01:14:09;17.10;;;2.70;;
18796;SDS011;9526;52.612;13.300;2024-03-23T01:16:31;17.00;;;3.42;;
18796;SDS011;9526;52.612;13.300;2024-03-23T01:18:53;12.23;;;2.72;;
18796;SDS011;9526;52.612;13.300;2024-03-23T01:21:15;18.23;;;3.08;;
18796;SDS011;9526;52.612;13.300;2024-03-23T01:23:38;14.45;;;2.70;;
18796;SDS011;9526;52.612;13.300;2024-03-23T01:26:01;9.50;;;2.60;;
18796;SDS011;9526;52.612;13.300;2024-03-23T01:28:24;12.13;;;2.85;;
18796;SDS011;9526;52.612;13.300;2024-03-23T01:30:45;11.82;;;2.42;;
18796;SDS011;9526;52.612;13.300;2024-03-23T01:33:08;19.85;;;3.00;;
18796;SDS011;9526;52.612;13.300;2024-03-23T01:35:30;19.58;;;2.75;;
18796;SDS011;9526;52.612;13.300;2024-03-23T01:37:53;21.15;;;2.85;;
18796;SDS011;9526;52.612;13.300;2024-03-23T01:40:15;15.52;;;2.80;;
18796;SDS011;9526;52.612;13.300;2024-03-23T01:42:40;15.73;;;2.58;;
18796;SDS011;9526;52.612;13.300;2024-03-23T01:45:02;20.15;;;3.00;;
18796;SDS011;9526;52.612;13.300;2024-03-23T01:47:30;17.05;;;2.92;;
18796;SDS011;9526;52.612;13.300;2024-03-23T01:49:52;20.83;;;3.10;;
18796;SDS011;9526;52.612;13.300;2024-03-23T01:52:15;16.58;;;2.90;;
18796;SDS011;9526;52.612;13.300;2024-03-23T01:54:37;16.08;;;3.33;;
18796;SDS011;9526;52.612;13.300;2024-03-23T01:57:00;19.52;;;2.58;;
18796;SDS011;9526;52.612;13.300;2024-03-23T01:59:24;18.33;;;2.90;;
18796;SDS011;9526;52.612;13.300;2024-03-23T02:01:46;17.58;;;2.88;;
18796;SDS011;9526;52.612;13.300;2024-03-23T02:04:08;15.20;;;2.55;;
18796;SDS011;9526;52.612;13.300;2024-03-23T02:06:31;21.10;;;3.30;;
18796;SDS011;9526;52.612;13.300;2024-03-23T02:08:54;11.65;;;3.10;;
18796;SDS011;9526;52.612;13.300;2024-03-23T02:11:17;15.25;;;2.63;;
18796;SDS011;9526;52.612;13.300;2024-03-23T02:13:38;14.73;;;3.25;;
18796;SDS011;9526;52.612;13.300;2024-03-23T02:16:04;11.30;;;2.50;;
18796;SDS011;9526;52.612;13.300;2024-03-23T02:18:26;16.35;;;3.08;;
18796;SDS011;9526;52.612;13.300;2024-03-23T02:20:49;19.98;;;2.72;;
18796;SDS011;9526;52.612;13.300;2024-03-23T02:23:15;12.68;;;2.63;;
18796;SDS011;9526;52.612;13.300;2024-03-23T02:25:38;14.02;;;2.67;;
18796;SDS011;9526;52.612;13.300;2024-03-23T02:28:00;11.25;;;2.67;;
18796;SDS011;9526;52.612;13.300;2024-03-23T02:30:23;13.80;;;2.60;;
18796;SDS011;9526;52.612;13.300;2024-03-23T02:32:44;12.57;;;2.38;;
18796;SDS011;9526;52.612;13.300;2024-03-23T02:35:07;12.95;;;3.00;;
18796;SDS011;9526;52.612;13.300;2024-03-23T02:37:29;16.20;;;2.95;;
18796;SDS011;9526;52.612;13.300;2024-03-23T02:39:54;16.50;;;2.95;;
18796;SDS011;9526;52.612;13.300;2024-03-23T02:42:15;20.48;;;2.90;;
18796;SDS011;9526;52.612;13.300;2024-03-23T02:44:38;10.43;;;2.80;;
18796;SDS011;9526;52.612;13.300;2024-03-23T02:47:00;21.20;;;2.78;;
18796;SDS011;9526;52.612;13.300;2024-03-23T02:49:23;11.02;;;3.10;;
18796;SDS011;9526;52.612;13.300;2024-03-23T02:51:44;15.30;;;2.65;;
18796;SDS011;9526;52.612;13.300;2024-03-23T02:54:09;11.55;;;2.70;;
18796;SDS011;9526;52.612;13.300;2024-03-23T02:56:33;22.90;;;3.55;;
18796;SDS011;9526;52.612;13.300;2024-03-23T02:58:56;15.85;;;2.58;;
18796;SDS011;9526;52.612;13.300;2024-03-23T03:01:17;16.35;;;3.22;;
18796;SDS011;9526;52.612;13.300;2024-03-23T03:03:40;10.70;;;3.20;;
18796;SDS011;9526;52.612;13.300;2024-03-23T03:06:02;14.27;;;3.30;;
18796;SDS011;9526;52.612;13.300;2024-03-23T03:08:25;8.80;;;3.03;;
18796;SDS011;9526;52.612;13.300;2024-03-23T03:10:47;17.23;;;3.47;;
18796;SDS011;9526;52.612;13.300;2024-03-23T03:13:11;16.52;;;3.17;;
18796;SDS011;9526;52.612;13.300;2024-03-23T03:15:32;11.75;;;3.50;;
18796;SDS011;9526;52.612;13.300;2024-03-23T03:17:55;15.93;;;3.42;;
18796;SDS011;9526;52.612;13.300;2024-03-23T03:20:17;16.40;;;3.60;;
18796;SDS011;9526;52.612;13.300;2024-03-23T03:22:39;10.82;;;2.92;;
18796;SDS011;9526;52.612;13.300;2024-03-23T03:25:01;16.77;;;3.13;;
18796;SDS011;9526;52.612;13.300;2024-03-23T03:27:24;19.73;;;2.85;;
18796;SDS011;9526;52.612;13.300;2024-03-23T03:29:47;14.88;;;3.03;;
18796;SDS011;9526;52.612;13.300;2024-03-23T03:32:10;15.77;;;3.03;;
18796;SDS011;9526;52.612;13.300;2024-03-23T03:34:32;18.08;;;3.25;;
18796;SDS011;9526;52.612;13.300;2024-03-23T03:36:55;16.60;;;3.08;;
18796;SDS011;9526;52.612;13.300;2024-03-23T03:39:17;17.80;;;3.35;;
18796;SDS011;9526;52.612;13.300;2024-03-23T03:41:40;17.67;;;3.05;;
18796;SDS011;9526;52.612;13.300;2024-03-23T03:44:02;19.77;;;3.00;;
18796;SDS011;9526;52.612;13.300;2024-03-23T03:46:26;12.52;;;2.53;;
18796;SDS011;9526;52.612;13.300;2024-03-23T03:48:48;10.10;;;2.33;;
18796;SDS011;9526;52.612;13.300;2024-03-23T03:51:10;10.05;;;2.72;;
18796;SDS011;9526;52.612;13.300;2024-03-23T03:53:32;14.40;;;2.60;;
18796;SDS011;9526;52.612;13.300;2024-03-23T03:55:55;8.70;;;2.70;;
18796;SDS011;9526;52.612;13.300;2024-03-23T03:58:16;9.10;;;2.47;;
18796;SDS011;9526;52.612;13.300;2024-03-23T04:00:39;13.32;;;2.85;;
18796;SDS011;9526;52.612;13.300;2024-03-23T04:03:02;12.50;;;2.50;;
18796;SDS011;9526;52.612;13.300;2024-03-23T04:05:26;6.07;;;1.90;;
18796;SDS011;9526;52.612;13.300;2024-03-23T04:07:48;18.67;;;2.50;;
18796;SDS011;9526;52.612;13.300;2024-03-23T04:10:10;15.32;;;2.38;;
18796;SDS011;9526;52.612;13.300;2024-03-23T04:12:32;14.18;;;2.45;;
18796;SDS011;9526;52.612;13.300;2024-03-23T04:14:55;12.45;;;2.55;;
18796;SDS011;9526;52.612;13.300;2024-03-23T04:17:17;12.90;;;2.15;;
18796;SDS011;9526;52.612;13.300;2024-03-23T04:19:42;12.82;;;2.42;;
18796;SDS011;9526;52.612;13.300;2024-03-23T04:22:04;15.93;;;2.92;;
18796;SDS011;9526;52.612;13.300;2024-03-23T04:24:27;12.77;;;2.63;;
18796;SDS011;9526;52.612;13.300;2024-03-23T04:26:49;11.50;;;2.63;;
18796;SDS011;9526;52.612;13.300;2024-03-23T04:29:12;10.55;;;2.30;;
18796;SDS011;9526;52.612;13.300;2024-03-23T04:31:33;10.85;;;2.58;;
18796;SDS011;9526;52.612;13.300;2024-03-23T04:33:56;10.07;;;2.42;;
18796;SDS011;9526;52.612;13.300;2024-03-23T04:36:19;15.38;;;2.60;;
18796;SDS011;9526;52.612;13.300;2024-03-23T04:38:42;14.82;;;2.58;;
18796;SDS011;9526;52.612;13.300;2024-03-23T04:41:06;9.73;;;2.35;;
18796;SDS011;9526;52.612;13.300;2024-03-23T04:43:28;11.52;;;2.50;;
18796;SDS011;9526;52.612;13.300;2024-03-23T04:45:51;9.07;;;2.60;;
18796;SDS011;9526;52.612;13.300;2024-03-23T04:48:14;21.05;;;3.08;;
18796;SDS011;9526;52.612;13.300;2024-03-23T04:50:37;11.05;;;2.53;;
18796;SDS011;9526;52.612;13.300;2024-03-23T04:53:02;14.32;;;2.67;;
18796;SDS011;9526;52.612;13.300;2024-03-23T04:55:25;14.05;;;2.55;;
18796;SDS011;9526;52.612;13.300;2024-03-23T04:57:47;9.93;;;2.25;;
18796;SDS011;9526;52.612;13.300;2024-03-23T05:00:10;18.30;;;2.45;;
18796;SDS011;9526;52.612;13.300;2024-03-23T05:02:37;17.55;;;2.40;;
18796;SDS011;9526;52.612;13.300;2024-03-23T05:05:00;11.40;;;2.70;;
18796;SDS011;9526;52.612;13.300;2024-03-23T05:07:22;13.55;;;2.28;;
18796;SDS011;9526;52.612;13.300;2024-03-23T05:09:46;10.82;;;2.42;;
18796;SDS011;9526;52.612;13.300;2024-03-23T05:12:09;12.52;;;2.78;;
18796;SDS011;9526;52.612;13.300;2024-03-23T05:14:32;14.15;;;2.33;;
18796;SDS011;9526;52.612;13.300;2024-03-23T05:16:53;10.68;;;2.47;;
18796;SDS011;9526;52.612;13.300;2024-03-23T05:19:16;15.15;;;2.63;;
18796;SDS011;9526;52.612;13.300;2024-03-23T05:21:38;14.10;;;2.47;;
18796;SDS011;9526;52.612;13.300;2024-03-23T05:24:00;18.02;;;2.40;;
18796;SDS011;9526;52.612;13.300;2024-03-23T05:26:24;12.10;;;2.17;;
18796;SDS011;9526;52.612;13.300;2024-03-23T05:28:47;19.30;;;2.63;;
18796;SDS011;9526;52.612;13.300;2024-03-23T05:31:09;16.20;;;2.45;;
18796;SDS011;9526;52.612;13.300;2024-03-23T05:33:31;20.40;;;2.53;;
18796;SDS011;9526;52.612;13.300;2024-03-23T05:35:56;12.20;;;2.35;;
18796;SDS011;9526;52.612;13.300;2024-03-23T05:38:19;15.93;;;2.60;;
18796;SDS011;9526;52.612;13.300;2024-03-23T05:40:41;10.68;;;2.42;;
18796;SDS011;9526;52.612;13.300;2024-03-23T05:43:05;14.38;;;2.30;;
18796;SDS011;9526;52.612;13.300;2024-03-23T05:45:27;12.98;;;2.38;;
18796;SDS011;9526;52.612;13.300;2024-03-23T05:47:49;10.05;;;2.35;;
18796;SDS011;9526;52.612;13.300;2024-03-23T05:50:11;11.38;;;2.10;;
18796;SDS011;9526;52.612;13.300;2024-03-23T05:52:34;13.32;;;2.13;;
18796;SDS011;9526;52.612;13.300;2024-03-23T05:54:56;14.05;;;2.70;;
18796;SDS011;9526;52.612;13.300;2024-03-23T05:57:19;10.75;;;1.98;;
18796;SDS011;9526;52.612;13.300;2024-03-23T05:59:42;5.55;;;1.88;;
18796;SDS011;9526;52.612;13.300;2024-03-23T06:02:04;9.68;;;2.22;;
18796;SDS011;9526;52.612;13.300;2024-03-23T06:04:27;13.43;;;2.13;;
18796;SDS011;9526;52.612;13.300;2024-03-23T06:06:50;9.95;;;2.05;;
18796;SDS011;9526;52.612;13.300;2024-03-23T06:09:12;10.82;;;2.60;;
18796;SDS011;9526;52.612;13.300;2024-03-23T06:11:35;11.50;;;2.17;;
18796;SDS011;9526;52.612;13.300;2024-03-23T06:13:57;7.78;;;1.98;;
18796;SDS011;9526;52.612;13.300;2024-03-23T06:16:21;9.48;;;2.08;;
18796;SDS011;9526;52.612;13.300;2024-03-23T06:18:44;9.98;;;2.38;;
18796;SDS011;9526;52.612;13.300;2024-03-23T06:21:12;8.98;;;2.20;;
18796;SDS011;9526;52.612;13.300;2024-03-23T06:23:34;10.77;;;1.98;;
18796;SDS011;9526;52.612;13.300;2024-03-23T06:25:57;6.40;;;1.92;;
18796;SDS011;9526;52.612;13.300;2024-03-23T06:28:19;8.48;;;2.15;;
18796;SDS011;9526;52.612;13.300;2024-03-23T06:30:42;12.27;;;2.13;;
18796;SDS011;9526;52.612;13.300;2024-03-23T06:33:05;8.52;;;2.05;;
18796;SDS011;9526;52.612;13.300;2024-03-23T06:35:27;9.38;;;1.90;;
18796;SDS011;9526;52.612;13.300;2024-03-23T06:37:49;9.50;;;2.08;;
18796;SDS011;9526;52.612;13.300;2024-03-23T06:40:12;8.95;;;2.10;;
18796;SDS011;9526;52.612;13.300;2024-03-23T06:42:33;9.82;;;1.92;;
18796;SDS011;9526;52.612;13.300;2024-03-23T06:44:56;16.52;;;2.33;;
18796;SDS011;9526;52.612;13.300;2024-03-23T06:47:19;7.00;;;1.95;;
18796;SDS011;9526;52.612;13.300;2024-03-23T06:49:42;12.82;;;2.33;;
18796;SDS011;9526;52.612;13.300;2024-03-23T06:52:04;7.95;;;1.75;;
18796;SDS011;9526;52.612;13.300;2024-03-23T06:54:26;11.65;;;2.40;;
18796;SDS011;9526;52.612;13.300;2024-03-23T06:56:49;7.88;;;2.00;;
18796;SDS011;9526;52.612;13.300;2024-03-23T06:59:11;7.47;;;1.90;;
18796;SDS011;9526;52.612;13.300;2024-03-23T07:01:34;6.80;;;2.10;;
18796;SDS011;9526;52.612;13.300;2024-03-23T07:03:55;10.30;;;2.05;;
18796;SDS011;9526;52.612;13.300;2024-03-23T07:06:19;6.13;;;1.55;;
18796;SDS011;9526;52.612;13.300;2024-03-23T07:08:41;5.85;;;2.20;;
18796;SDS011;9526;52.612;13.300;2024-03-23T07:11:04;11.95;;;2.10;;
18796;SDS011;9526;52.612;13.300;2024-03-23T07:13:26;5.53;;;1.70;;
18796;SDS011;9526;52.612;13.300;2024-03-23T07:15:52;6.35;;;1.67;;
18796;SDS011;9526;52.612;13.300;2024-03-23T07:18:15;9.40;;;2.20;;
18796;SDS011;9526;52.612;13.300;2024-03-23T07:20:38;10.25;;;1.92;;
18796;SDS011;9526;52.612;13.300;2024-03-23T07:23:01;6.32;;;2.30;;
18796;SDS011;9526;52.612;13.300;2024-03-23T07:25:23;8.88;;;2.28;;
18796;SDS011;9526;52.612;13.300;2024-03-23T07:27:47;8.88;;;2.17;;
18796;SDS011;9526;52.612;13.300;2024-03-23T07:30:10;6.82;;;2.13;;
18796;SDS011;9526;52.612;13.300;2024-03-23T07:32:32;8.73;;;2.03;;
18796;SDS011;9526;52.612;13.300;2024-03-23T07:34:55;7.38;;;2.42;;
18796;SDS011;9526;52.612;13.300;2024-03-23T07:37:16;9.48;;;2.00;;
18796;SDS011;9526;52.612;13.300;2024-03-23T07:39:40;7.45;;;2.22;;
18796;SDS011;9526;52.612;13.300;2024-03-23T07:42:02;10.02;;;2.03;;
18796;SDS011;9526;52.612;13.300;2024-03-23T07:44:25;8.25;;;1.90;;
18796;SDS011;9526;52.612;13.300;2024-03-23T07:46:47;6.22;;;1.67;;
18796;SDS011;9526;52.612;13.300;2024-03-23T07:49:10;7.10;;;1.58;;
18796;SDS011;9526;52.612;13.300;2024-03-23T07:51:31;8.80;;;1.98;;
18796;SDS011;9526;52.612;13.300;2024-03-23T07:53:55;8.93;;;2.00;;
18796;SDS011;9526;52.612;13.300;2024-03-23T07:56:18;6.25;;;2.00;;
18796;SDS011;9526;52.612;13.300;2024-03-23T07:58:42;7.55;;;1.75;;
18796;SDS011;9526;52.612;13.300;2024-03-23T08:01:03;5.18;;;1.75;;
18796;SDS011;9526;52.612;13.300;2024-03-23T08:03:29;7.70;;;2.25;;
18796;SDS011;9526;52.612;13.300;2024-03-23T08:05:50;6.00;;;1.95;;
18796;SDS011;9526;52.612;13.300;2024-03-23T08:08:13;7.55;;;1.80;;
18796;SDS011;9526;52.612;13.300;2024-03-23T08:10:35;8.75;;;2.05;;
18796;SDS011;9526;52.612;13.300;2024-03-23T08:12:59;9.35;;;2.00;;
18796;SDS011;9526;52.612;13.300;2024-03-23T08:15:20;8.55;;;1.98;;
18796;SDS011;9526;52.612;13.300;2024-03-23T08:17:43;10.50;;;2.22;;
18796;SDS011;9526;52.612;13.300;2024-03-23T08:20:05;9.20;;;2.63;;
18796;SDS011;9526;52.612;13.300;2024-03-23T08:22:30;9.95;;;2.03;;
18796;SDS011;9526;52.612;13.300;2024-03-23T08:24:51;8.48;;;1.95;;
18796;SDS011;9526;52.612;13.300;2024-03-23T08:27:14;7.22;;;1.98;;
18796;SDS011;9526;52.612;13.300;2024-03-23T08:29:37;9.73;;;2.20;;
18796;SDS011;9526;52.612;13.300;2024-03-23T08:32:00;8.48;;;2.20;;
18796;SDS011;9526;52.612;13.300;2024-03-23T08:34:22;7.63;;;2.05;;
18796;SDS011;9526;52.612;13.300;2024-03-23T08:36:45;12.90;;;2.17;;
18796;SDS011;9526;52.612;13.300;2024-03-23T08:39:07;9.43;;;2.00;;
18796;SDS011;9526;52.612;13.300;2024-03-23T08:41:29;8.75;;;2.00;;
18796;SDS011;9526;52.612;13.300;2024-03-23T08:43:51;5.32;;;2.05;;
18796;SDS011;9526;52.612;13.300;2024-03-23T08:46:15;4.30;;;1.65;;
18796;SDS011;9526;52.612;13.300;2024-03-23T08:48:38;7.35;;;1.83;;
18796;SDS011;9526;52.612;13.300;2024-03-23T08:51:04;8.32;;;1.58;;
18796;SDS011;9526;52.612;13.300;2024-03-23T08:53:28;5.13;;;1.55;;
18796;SDS011;9526;52.612;13.300;2024-03-23T08:55:53;4.53;;;1.60;;
18796;SDS011;9526;52.612;13.300;2024-03-23T08:58:14;6.13;;;1.35;;
18796;SDS011;9526;52.612;13.300;2024-03-23T09:00:38;10.20;;;1.85;;
18796;SDS011;9526;52.612;13.300;2024-03-23T09:03:01;2.60;;;1.30;;
18796;SDS011;9526;52.612;13.300;2024-03-23T09:05:25;3.67;;;1.55;;
18796;SDS011;9526;52.612;13.300;2024-03-23T09:07:46;5.93;;;1.55;;
18796;SDS011;9526;52.612;13.300;2024-03-23T09:10:09;6.35;;;1.83;;
18796;SDS011;9526;52.612;13.300;2024-03-23T09:12:30;4.72;;;1.65;;
18796;SDS011;9526;52.612;13.300;2024-03-23T09:14:53;7.13;;;1.48;;
18796;SDS011;9526;52.612;13.300;2024-03-23T09:17:15;5.15;;;1.60;;
18796;SDS011;9526;52.612;13.300;2024-03-23T09:19:40;7.72;;;1.65;;
18796;SDS011;9526;52.612;13.300;2024-03-23T09:22:01;8.98;;;1.77;;
18796;SDS011;9526;52.612;13.300;2024-03-23T09:24:24;7.30;;;1.73;;
18796;SDS011;9526;52.612;13.300;2024-03-23T09:26:46;6.90;;;1.63;;
18796;SDS011;9526;52.612;13.300;2024-03-23T09:29:09;6.72;;;1.92;;
18796;SDS011;9526;52.612;13.300;2024-03-23T09:31:30;6.00;;;1.50;;
18796;SDS011;9526;52.612;13.300;2024-03-23T09:33:54;12.18;;;1.95;;
18796;SDS011;9526;52.612;13.300;2024-03-23T09:36:17;9.07;;;1.70;;
18796;SDS011;9526;52.612;13.300;2024-03-23T09:38:40;6.53;;;1.80;;
18796;SDS011;9526;52.612;13.300;2024-03-23T09:41:06;9.13;;;2.05;;
18796;SDS011;9526;52.612;13.300;2024-03-23T09:43:30;8.38;;;1.75;;
18796;SDS011;9526;52.612;13.300;2024-03-23T09:45:52;12.23;;;1.85;;
18796;SDS011;9526;52.612;13.300;2024-03-23T09:48:15;11.68;;;2.58;;
18796;SDS011;9526;52.612;13.300;2024-03-23T09:50:37;10.00;;;2.20;;
18796;SDS011;9526;52.612;13.300;2024-03-23T09:53:01;6.32;;;1.67;;
18796;SDS011;9526;52.612;13.300;2024-03-23T09:55:23;9.60;;;1.95;;
18796;SDS011;9526;52.612;13.300;2024-03-23T09:57:46;9.85;;;2.10;;
18796;SDS011;9526;52.612;13.300;2024-03-23T10:00:08;7.72;;;1.88;;
18796;SDS011;9526;52.612;13.300;2024-03-23T10:02:32;7.38;;;2.00;;
18796;SDS011;9526;52.612;13.300;2024-03-23T10:04:55;5.65;;;1.80;;
18796;SDS011;9526;52.612;13.300;2024-03-23T10:07:19;6.50;;;1.60;;
18796;SDS011;9526;52.612;13.300;2024-03-23T10:09:44;7.38;;;1.95;;
18796;SDS011;9526;52.612;13.300;2024-03-23T10:12:08;7.82;;;1.73;;
18796;SDS011;9526;52.612;13.300;2024-03-23T10:14:32;7.20;;;2.08;;
18796;SDS011;9526;52.612;13.300;2024-03-23T10:16:54;8.60;;;1.90;;
18796;SDS011;9526;52.612;13.300;2024-03-23T10:19:34;8.90;;;1.80;;
18796;SDS011;9526;52.612;13.300;2024-03-23T10:21:56;6.75;;;1.60;;
18796;SDS011;9526;52.612;13.300;2024-03-23T10:24:19;10.30;;;2.20;;
18796;SDS011;9526;52.612;13.300;2024-03-23T10:26:42;7.38;;;2.10;;
18796;SDS011;9526;52.612;13.300;2024-03-23T10:29:04;10.07;;;2.13;;
18796;SDS011;9526;52.612;13.300;2024-03-23T10:31:28;11.00;;;2.35;;
18796;SDS011;9526;52.612;13.300;2024-03-23T10:33:53;9.10;;;2.13;;
18796;SDS011;9526;52.612;13.300;2024-03-23T10:36:15;10.60;;;2.05;;
18796;SDS011;9526;52.612;13.300;2024-03-23T10:38:38;9.25;;;2.17;;
18796;SDS011;9526;52.612;13.300;2024-03-23T10:41:02;8.40;;;2.35;;
18796;SDS011;9526;52.612;13.300;2024-03-23T10:43:26;5.35;;;2.10;;
18796;SDS011;9526;52.612;13.300;2024-03-23T10:45:48;9.75;;;2.05;;
18796;SDS011;9526;52.612;13.300;2024-03-23T10:48:12;11.93;;;2.40;;
18796;SDS011;9526;52.612;13.300;2024-03-23T10:50:33;12.48;;;2.33;;
18796;SDS011;9526;52.612;13.300;2024-03-23T10:52:56;10.02;;;2.42;;
18796;SDS011;9526;52.612;13.300;2024-03-23T10:55:20;9.02;;;2.35;;
18796;SDS011;9526;52.612;13.300;2024-03-23T10:57:48;4.68;;;1.27;;
18796;SDS011;9526;52.612;13.300;2024-03-23T11:00:14;5.43;;;1.95;;
18796;SDS011;9526;52.612;13.300;2024-03-23T11:02:38;13.73;;;2.30;;
18796;SDS011;9526;52.612;13.300;2024-03-23T11:05:01;5.10;;;1.92;;
18796;SDS011;9526;52.612;13.300;2024-03-23T11:07:28;10.35;;;1.88;;
18796;SDS011;9526;52.612;13.300;2024-03-23T11:09:52;7.38;;;1.85;;
18796;SDS011;9526;52.612;13.300;2024-03-23T11:12:29;7.90;;;1.75;;
18796;SDS011;9526;52.612;13.300;2024-03-23T11:14:53;6.38;;;1.80;;
18796;SDS011;9526;52.612;13.300;2024-03-23T11:17:22;6.15;;;1.70;;
18796;SDS011;9526;52.612;13.300;2024-03-23T11:19:46;10.00;;;2.17;;
18796;SDS011;9526;52.612;13.300;2024-03-23T11:22:17;12.93;;;2.45;;
18796;SDS011;9526;52.612;13.300;2024-03-23T11:25:03;8.20;;;2.50;;
18796;SDS011;9526;52.612;13.300;2024-03-23T11:27:26;8.77;;;2.33;;
18796;SDS011;9526;52.612;13.300;2024-03-23T11:29:47;8.02;;;2.20;;
18796;SDS011;9526;52.612;13.300;2024-03-23T11:32:10;7.20;;;2.08;;
18796;SDS011;9526;52.612;13.300;2024-03-23T11:34:35;12.25;;;2.20;;
18796;SDS011;9526;52.612;13.300;2024-03-23T11:37:04;9.15;;;2.40;;
18796;SDS011;9526;52.612;13.300;2024-03-23T11:39:26;11.43;;;1.85;;
18796;SDS011;9526;52.612;13.300;2024-03-23T11:41:49;5.68;;;1.83;;
18796;SDS011;9526;52.612;13.300;2024-03-23T11:44:16;7.57;;;2.30;;
18796;SDS011;9526;52.612;13.300;2024-03-23T11:46:39;8.40;;;2.22;;
18796;SDS011;9526;52.612;13.300;2024-03-23T11:49:01;4.40;;;1.98;;
18796;SDS011;9526;52.612;13.300;2024-03-23T11:51:25;10.55;;;2.28;;
18796;SDS011;9526;52.612;13.300;2024-03-23T11:53:47;6.32;;;2.10;;
18796;SDS011;9526;52.612;13.300;2024-03-23T11:56:10;9.23;;;2.08;;
18796;SDS011;9526;52.612;13.300;2024-03-23T11:58:31;5.25;;;1.88;;
18796;SDS011;9526;52.612;13.300;2024-03-23T12:00:55;5.65;;;1.67;;
18796;SDS011;9526;52.612;13.300;2024-03-23T12:03:18;7.57;;;2.30;;
18796;SDS011;9526;52.612;13.300;2024-03-23T12:05:47;6.10;;;1.70;;
18796;SDS011;9526;52.612;13.300;2024-03-23T12:08:24;8.75;;;2.30;;
18796;SDS011;9526;52.612;13.300;2024-03-23T12:10:51;7.32;;;1.67;;
18796;SDS011;9526;52.612;13.300;2024-03-23T12:13:15;8.57;;;1.95;;
18796;SDS011;9526;52.612;13.300;2024-03-23T12:15:41;10.60;;;2.47;;
18796;SDS011;9526;52.612;13.300;2024-03-23T12:18:07;13.55;;;2.35;;
18796;SDS011;9526;52.612;13.300;2024-03-23T12:20:30;9.63;;;2.60;;
18796;SDS011;9526;52.612;13.300;2024-03-23T12:22:54;10.25;;;2.60;;
18796;SDS011;9526;52.612;13.300;2024-03-23T12:25:29;14.73;;;2.20;;
18796;SDS011;9526;52.612;13.300;2024-03-23T12:27:51;10.15;;;2.45;;
18796;SDS011;9526;52.612;13.300;2024-03-23T12:30:13;8.80;;;1.90;;
18796;SDS011;9526;52.612;13.300;2024-03-23T12:32:35;10.38;;;2.30;;
18796;SDS011;9526;52.612;13.300;2024-03-23T12:34:58;9.73;;;2.35;;
18796;SDS011;9526;52.612;13.300;2024-03-23T12:37:19;9.60;;;2.08;;
18796;SDS011;9526;52.612;13.300;2024-03-23T12:39:42;8.77;;;2.28;;
18796;SDS011;9526;52.612;13.300;2024-03-23T12:42:05;11.05;;;2.28;;
18796;SDS011;9526;52.612;13.300;2024-03-23T12:44:28;10.15;;;2.40;;
18796;SDS011;9526;52.612;13.300;2024-03-23T12:46:50;9.43;;;2.00;;
18796;SDS011;9526;52.612;13.300;2024-03-23T12:49:13;8.80;;;1.80;;
18796;SDS011;9526;52.612;13.300;2024-03-23T12:51:34;8.07;;;2.03;;
18796;SDS011;9526;52.612;13.300;2024-03-23T12:53:57;5.55;;;1.27;;
18796;SDS011;9526;52.612;13.300;2024-03-23T12:56:19;8.98;;;2.10;;
18796;SDS011;9526;52.612;13.300;2024-03-23T12:58:43;7.25;;;1.83;;
18796;SDS011;9526;52.612;13.300;2024-03-23T13:01:05;7.82;;;2.22;;
18796;SDS011;9526;52.612;13.300;2024-03-23T13:03:27;5.75;;;1.75;;
18796;SDS011;9526;52.612;13.300;2024-03-23T13:05:51;6.85;;;2.22;;
18796;SDS011;9526;52.612;13.300;2024-03-23T13:08:14;9.25;;;2.40;;
18796;SDS011;9526;52.612;13.300;2024-03-23T13:10:35;8.00;;;2.00;;
18796;SDS011;9526;52.612;13.300;2024-03-23T13:12:58;8.45;;;2.20;;
18796;SDS011;9526;52.612;13.300;2024-03-23T13:15:21;6.07;;;2.50;;
18796;SDS011;9526;52.612;13.300;2024-03-23T13:17:44;9.52;;;2.30;;
18796;SDS011;9526;52.612;13.300;2024-03-23T13:20:06;8.57;;;2.30;;
18796;SDS011;9526;52.612;13.300;2024-03-23T13:22:33;8.40;;;1.90;;
18796;SDS011;9526;52.612;13.300;2024-03-23T13:24:55;12.07;;;3.13;;
18796;SDS011;9526;52.612;13.300;2024-03-23T13:27:18;12.52;;;2.50;;
18796;SDS011;9526;52.612;13.300;2024-03-23T13:29:40;9.40;;;2.40;;
18796;SDS011;9526;52.612;13.300;2024-03-23T13:32:04;7.90;;;2.35;;
18796;SDS011;9526;52.612;13.300;2024-03-23T13:34:27;9.80;;;2.55;;
18796;SDS011;9526;52.612;13.300;2024-03-23T13:36:50;12.73;;;2.95;;
18796;SDS011;9526;52.612;13.300;2024-03-23T13:39:12;9.98;;;3.15;;
18796;SDS011;9526;52.612;13.300;2024-03-23T13:41:37;8.07;;;2.70;;
18796;SDS011;9526;52.612;13.300;2024-03-23T13:43:59;7.63;;;2.55;;
18796;SDS011;9526;52.612;13.300;2024-03-23T13:46:22;12.80;;;3.97;;
18796;SDS011;9526;52.612;13.300;2024-03-23T13:48:45;8.70;;;2.72;;
18796;SDS011;9526;52.612;13.300;2024-03-23T13:51:08;10.05;;;2.40;;
18796;SDS011;9526;52.612;13.300;2024-03-23T13:53:30;8.48;;;2.38;;
18796;SDS011;9526;52.612;13.300;2024-03-23T13:55:53;10.00;;;2.70;;
18796;SDS011;9526;52.612;13.300;2024-03-23T13:58:15;9.02;;;2.67;;
18796;SDS011;9526;52.612;13.300;2024-03-23T14:00:38;6.03;;;2.75;;
18796;SDS011;9526;52.612;13.300;2024-03-23T14:02:59;7.45;;;3.03;;
18796;SDS011;9526;52.612;13.300;2024-03-23T14:05:24;9.20;;;3.08;;
18796;SDS011;9526;52.612;13.300;2024-03-23T14:07:45;12.25;;;2.83;;
18796;SDS011;9526;52.612;13.300;2024-03-23T14:10:08;11.75;;;2.72;;
18796;SDS011;9526;52.612;13.300;2024-03-23T14:12:31;17.52;;;3.35;;
18796;SDS011;9526;52.612;13.300;2024-03-23T14:14:54;10.45;;;3.28;;
18796;SDS011;9526;52.612;13.300;2024-03-23T14:17:16;9.95;;;2.90;;
18796;SDS011;9526;52.612;13.300;2024-03-23T14:19:39;13.93;;;3.15;;
18796;SDS011;9526;52.612;13.300;2024-03-23T14:22:02;5.53;;;1.70;;
18796;SDS011;9526;52.612;13.300;2024-03-23T14:24:25;6.18;;;1.70;;
18796;SDS011;9526;52.612;13.300;2024-03-23T14:26:46;6.60;;;1.88;;
18796;SDS011;9526;52.612;13.300;2024-03-23T14:29:10;5.00;;;1.80;;
18796;SDS011;9526;52.612;13.300;2024-03-23T14:31:31;8.07;;;1.88;;
18796;SDS011;9526;52.612;13.300;2024-03-23T14:33:54;4.80;;;1.80;;
18796;SDS011;9526;52.612;13.300;2024-03-23T14:36:16;12.07;;;1.95;;
18796;SDS011;9526;52.612;13.300;2024-03-23T14:38:40;4.90;;;1.63;;
18796;SDS011;9526;52.612;13.300;2024-03-23T14:41:02;5.13;;;1.95;;
18796;SDS011;9526;52.612;13.300;2024-03-23T14:43:25;6.82;;;2.03;;
18796;SDS011;9526;52.612;13.300;2024-03-23T14:46:05;6.78;;;1.80;;
18796;SDS011;9526;52.612;13.300;2024-03-23T14:48:29;6.32;;;1.88;;
18796;SDS011;9526;52.612;13.300;2024-03-23T14:50:55;6.97;;;1.73;;
18796;SDS011;9526;52.612;13.300;2024-03-23T14:53:19;3.15;;;1.55;;
18796;SDS011;9526;52.612;13.300;2024-03-23T14:55:42;5.05;;;2.55;;
18796;SDS011;9526;52.612;13.300;2024-03-23T14:58:09;6.03;;;2.10;;
18796;SDS011;9526;52.612;13.300;2024-03-23T15:00:30;4.97;;;2.00;;
18796;SDS011;9526;52.612;13.300;2024-03-23T15:02:54;6.22;;;2.20;;
18796;SDS011;9526;52.612;13.300;2024-03-23T15:05:15;8.70;;;3.13;;
18796;SDS011;9526;52.612;13.300;2024-03-23T15:07:38;9.60;;;2.67;;
18796;SDS011;9526;52.612;13.300;2024-03-23T15:10:01;7.07;;;2.63;;